Time,TemperatureF,DewpointF,PressureIn,WindDirection,WindDirectionDegrees,WindSpeedMPH,WindSpeedGustMPH,Humidity,HourlyPrecipIn,Conditions,Clouds,dailyrainin,SolarRadiationWatts/m^2,SoftwareType,DateUTC
2013-02-22 00:04:00,39.4,37.0,30.17,NE,43,0.0,2.0,89,0.00,,,0.00,0,weatherlink.com 1.10,2013-02-22 08:04:00,
2013-02-22 00:19:00,40.7,37.0,30.16,NE,43,0.0,1.0,87,0.00,,,0.00,0,weatherlink.com 1.10,2013-02-22 08:19:00,
2013-02-22 00:34:00,40.5,37.0,30.16,NE,43,0.0,1.0,87,0.00,,,0.00,0,weatherlink.com 1.10,2013-02-22 08:34:00,
2013-02-22 00:49:00,40.2,36.0,30.17,NE,43,0.0,2.0,86,0.00,,,0.00,0,weatherlink.com 1.10,2013-02-22 08:49:00,
2013-02-22 01:04:00,40.1,37.0,30.17,NE,43,0.0,2.0,87,0.00,,,0.00,0,weatherlink.com 1.10,2013-02-22 09:04:00,
2013-02-22 01:19:00,39.6,36.0,30.18,NE,43,0.0,1.0,87,0.00,,,0.00,0,weatherlink.com 1.10,2013-02-22 09:19:00,
2013-02-22 01:34:00,39.0,36.0,30.18,NE,43,0.0,1.0,87,0.00,,,0.00,0,weatherlink.com 1.10,2013-02-22 09:34:00,
2013-02-22 01:49:00,38.5,36.0,30.17,NE,43,0.0,1.0,89,0.00,,,0.00,0,weatherlink.com 1.10,2013-02-22 09:49:00,
2013-02-22 02:05:00,38.4,36.0,30.17,NE,43,0.0,1.0,90,0.00,,,0.00,0,weatherlink.com 1.10,2013-02-22 10:05:00,
2013-02-22 02:20:00,38.6,36.0,30.17,NNE,30,0.0,3.0,91,0.00,,,0.00,0,weatherlink.com 1.10,2013-02-22 10:20:00,
2013-02-22 02:34:00,38.5,36.0,30.16,NNE,29,1.0,2.0,90,0.00,,,0.00,0,weatherlink.com 1.10,2013-02-22 10:34:00,
2013-02-22 02:49:00,37.9,35.0,30.17,NNE,29,0.0,2.0,90,0.00,,,0.00,0,weatherlink.com 1.10,2013-02-22 10:49:00,
2013-02-22 03:05:00,37.0,34.0,30.17,NNE,29,0.0,1.0,89,0.00,,,0.00,0,weatherlink.com 1.10,2013-02-22 11:05:00,
2013-02-22 03:19:00,37.3,35.0,30.17,ENE,57,0.0,4.0,91,0.00,,,0.00,0,weatherlink.com 1.10,2013-02-22 11:19:00,
2013-02-22 03:35:00,37.5,35.0,30.17,NE,43,0.0,2.0,90,0.00,,,0.00,0,weatherlink.com 1.10,2013-02-22 11:35:00,
2013-02-22 03:49:00,37.3,35.0,30.17,NE,43,0.0,0.0,90,0.00,,,0.00,0,weatherlink.com 1.10,2013-02-22 11:49:00,
2013-02-22 04:05:00,37.1,35.0,30.17,NE,43,0.0,0.0,90,0.00,,,0.00,0,weatherlink.com 1.10,2013-02-22 12:05:00,
2013-02-22 04:19:00,36.8,35.0,30.17,NE,36,0.0,2.0,91,0.00,,,0.00,0,weatherlink.com 1.10,2013-02-22 12:19:00,
2013-02-22 04:34:00,36.1,34.0,30.17,NE,36,0.0,0.0,91,0.00,,,0.00,0,weatherlink.com 1.10,2013-02-22 12:34:00,
2013-02-22 04:50:00,35.3,33.0,30.18,NE,52,0.0,3.0,91,0.00,,,0.00,0,weatherlink.com 1.10,2013-02-22 12:50:00,
2013-02-22 05:05:00,35.5,33.0,30.19,NE,49,0.0,1.0,92,0.00,,,0.00,0,weatherlink.com 1.10,2013-02-22 13:05:00,
2013-02-22 05:20:00,34.8,33.0,30.19,NE,49,0.0,0.0,91,0.00,,,0.00,0,weatherlink.com 1.10,2013-02-22 13:20:00,
2013-02-22 05:35:00,35.6,34.0,30.20,NE,49,0.0,2.0,93,0.00,,,0.00,0,weatherlink.com 1.10,2013-02-22 13:35:00,
2013-02-22 05:50:00,35.1,33.0,30.20,NE,49,0.0,0.0,92,0.00,,,0.00,0,weatherlink.com 1.10,2013-02-22 13:50:00,
2013-02-22 06:05:00,34.3,32.0,30.20,NE,49,0.0,1.0,91,0.00,,,0.00,0,weatherlink.com 1.10,2013-02-22 14:05:00,
2013-02-22 06:20:00,33.9,32.0,30.20,NE,49,0.0,0.0,92,0.00,,,0.00,0,weatherlink.com 1.10,2013-02-22 14:20:00,
2013-02-22 06:35:00,33.5,32.0,30.20,ENE,58,0.0,1.0,92,0.00,,,0.00,0,weatherlink.com 1.10,2013-02-22 14:35:00,
2013-02-22 06:50:00,33.6,32.0,30.20,East,96,0.0,1.0,93,0.00,,,0.00,0,weatherlink.com 1.10,2013-02-22 14:50:00,
2013-02-22 07:05:00,33.9,32.0,30.21,East,96,0.0,0.0,93,0.00,,,0.00,11,weatherlink.com 1.10,2013-02-22 15:05:00,
2013-02-22 07:20:00,34.2,32.0,30.21,East,96,0.0,1.0,93,0.00,,,0.00,42,weatherlink.com 1.10,2013-02-22 15:20:00,
2013-02-22 07:35:00,34.3,33.0,30.22,East,84,0.0,3.0,93,0.00,,,0.00,88,weatherlink.com 1.10,2013-02-22 15:35:00,
2013-02-22 07:50:00,35.8,34.0,30.23,East,84,1.0,2.0,93,0.00,,,0.00,132,weatherlink.com 1.10,2013-02-22 15:50:00,
2013-02-22 08:05:00,37.7,35.0,30.23,North,11,0.0,2.0,91,0.00,,,0.00,179,weatherlink.com 1.10,2013-02-22 16:05:00,
2013-02-22 08:20:00,40.2,37.0,30.23,North,11,0.0,2.0,88,0.00,,,0.00,230,weatherlink.com 1.10,2013-02-22 16:20:00,
2013-02-22 08:35:00,41.1,37.0,30.24,NNE,19,0.0,4.0,86,0.00,,,0.00,287,weatherlink.com 1.10,2013-02-22 16:35:00,
2013-02-22 08:50:00,43.3,39.0,30.24,NE,34,2.0,2.0,84,0.00,,,0.00,338,weatherlink.com 1.10,2013-02-22 16:50:00,
2013-02-22 09:05:00,45.1,40.0,30.23,East,98,1.0,3.0,82,0.00,,,0.00,380,weatherlink.com 1.10,2013-02-22 17:05:00,
2013-02-22 09:21:00,46.5,40.0,30.23,NNW,328,1.0,4.0,78,0.00,,,0.00,422,weatherlink.com 1.10,2013-02-22 17:21:00,
2013-02-22 09:35:00,48.1,40.0,30.24,NNE,13,0.0,4.0,74,0.00,,,0.00,448,weatherlink.com 1.10,2013-02-22 17:35:00,
2013-02-22 09:51:00,49.3,41.0,30.24,West,267,4.0,4.0,73,0.00,,,0.00,497,weatherlink.com 1.10,2013-02-22 17:51:00,
2013-02-22 10:06:00,51.8,39.0,30.24,NNE,32,4.0,6.0,61,0.00,,,0.00,527,weatherlink.com 1.10,2013-02-22 18:06:00,
2013-02-22 10:21:00,53.1,39.0,30.24,ENE,61,1.0,5.0,59,0.00,,,0.00,373,weatherlink.com 1.10,2013-02-22 18:21:00,
2013-02-22 10:36:00,54.3,38.0,30.24,North,5,5.0,7.0,55,0.00,,,0.00,596,weatherlink.com 1.10,2013-02-22 18:36:00,
2013-02-22 10:51:00,54.3,38.0,30.24,NNW,342,3.0,7.0,55,0.00,,,0.00,621,weatherlink.com 1.10,2013-02-22 18:51:00,
2013-02-22 11:06:00,55.0,39.0,30.24,NNE,32,2.0,7.0,55,0.00,,,0.00,635,weatherlink.com 1.10,2013-02-22 19:06:00,
2013-02-22 11:21:00,55.8,41.0,30.24,NW,321,2.0,7.0,59,0.00,,,0.00,650,weatherlink.com 1.10,2013-02-22 19:21:00,
2013-02-22 11:36:00,56.6,42.0,30.24,NNE,24,3.0,7.0,58,0.00,,,0.00,654,weatherlink.com 1.10,2013-02-22 19:36:00,
2013-02-22 11:51:00,57.8,42.0,30.24,NNW,348,2.0,7.0,55,0.00,,,0.00,654,weatherlink.com 1.10,2013-02-22 19:51:00,
2013-02-22 12:06:00,58.4,40.0,30.24,NW,318,5.0,7.0,50,0.00,,,0.00,666,weatherlink.com 1.10,2013-02-22 20:06:00,
2013-02-22 12:21:00,59.2,40.0,30.23,North,5,4.0,6.0,50,0.00,,,0.00,670,weatherlink.com 1.10,2013-02-22 20:21:00,
2013-02-22 12:36:00,59.9,40.0,30.22,North,355,3.0,7.0,49,0.00,,,0.00,675,weatherlink.com 1.10,2013-02-22 20:36:00,
2013-02-22 12:51:00,60.3,41.0,30.21,North,355,4.0,7.0,50,0.00,,,0.00,371,weatherlink.com 1.10,2013-02-22 20:51:00,
2013-02-22 13:06:00,61.1,41.0,30.20,NE,38,1.0,5.0,48,0.00,,,0.00,791,weatherlink.com 1.10,2013-02-22 21:06:00,
2013-02-22 13:21:00,61.9,40.0,30.20,West,279,3.0,7.0,44,0.00,,,0.00,649,weatherlink.com 1.10,2013-02-22 21:21:00,
2013-02-22 13:36:00,61.9,42.0,30.19,NNE,32,5.0,12.0,48,0.00,,,0.00,608,weatherlink.com 1.10,2013-02-22 21:36:00,
2013-02-22 13:51:00,60.0,42.0,30.19,North,360,5.0,11.0,51,0.00,,,0.00,431,weatherlink.com 1.10,2013-02-22 21:51:00,
2013-02-22 14:06:00,58.7,40.0,30.18,NNW,341,6.0,12.0,51,0.00,,,0.00,60,weatherlink.com 1.10,2013-02-22 22:06:00,
2013-02-22 14:21:00,58.0,42.0,30.18,NW,312,5.0,10.0,56,0.00,,,0.00,58,weatherlink.com 1.10,2013-02-22 22:21:00,
2013-02-22 14:36:00,57.5,42.0,30.18,West,270,5.0,9.0,57,0.00,,,0.00,72,weatherlink.com 1.10,2013-02-22 22:36:00,
2013-02-22 14:51:00,57.6,42.0,30.18,NW,325,4.0,10.0,57,0.00,,,0.00,56,weatherlink.com 1.10,2013-02-22 22:51:00,
2013-02-22 15:06:00,56.8,44.0,30.19,NNW,338,2.0,13.0,62,0.00,,,0.00,169,weatherlink.com 1.10,2013-02-22 23:06:00,
2013-02-22 15:21:00,56.6,45.0,30.19,WNW,284,7.0,12.0,65,0.00,,,0.00,373,weatherlink.com 1.10,2013-02-22 23:21:00,
2013-02-22 15:37:00,56.6,45.0,30.18,WNW,300,5.0,11.0,65,0.00,,,0.00,325,weatherlink.com 1.10,2013-02-22 23:37:00,
2013-02-22 15:52:00,56.1,45.0,30.18,NW,317,7.0,12.0,66,0.00,,,0.00,279,weatherlink.com 1.10,2013-02-22 23:52:00,
2013-02-22 16:06:00,56.3,45.0,30.18,NW,319,6.0,10.0,66,0.00,,,0.00,250,weatherlink.com 1.10,2013-02-23 00:06:00,
2013-02-22 16:21:00,55.7,45.0,30.18,NNW,341,6.0,10.0,68,0.00,,,0.00,181,weatherlink.com 1.10,2013-02-23 00:21:00,
2013-02-22 16:36:00,54.3,45.0,30.18,NW,306,4.0,10.0,71,0.00,,,0.00,69,weatherlink.com 1.10,2013-02-23 00:36:00,
2013-02-22 16:51:00,53.7,45.0,30.17,WNW,296,3.0,9.0,72,0.00,,,0.00,88,weatherlink.com 1.10,2013-02-23 00:51:00,
2013-02-22 17:06:00,53.6,45.0,30.17,NW,317,6.0,6.0,72,0.00,,,0.00,63,weatherlink.com 1.10,2013-02-23 01:06:00,
2013-02-22 17:21:00,52.6,45.0,30.17,WNW,296,3.0,9.0,74,0.00,,,0.00,28,weatherlink.com 1.10,2013-02-23 01:21:00,
2013-02-22 17:36:00,51.9,45.0,30.16,WNW,289,4.0,7.0,76,0.00,,,0.00,14,weatherlink.com 1.10,2013-02-23 01:36:00,
2013-02-22 17:51:00,51.3,44.0,30.16,NW,306,3.0,7.0,77,0.00,,,0.00,0,weatherlink.com 1.10,2013-02-23 01:51:00,
2013-02-22 18:06:00,50.8,44.0,30.16,NW,319,3.0,6.0,78,0.00,,,0.00,0,weatherlink.com 1.10,2013-02-23 02:06:00,
2013-02-22 18:21:00,50.4,44.0,30.17,WNW,287,2.0,3.0,79,0.00,,,0.00,0,weatherlink.com 1.10,2013-02-23 02:21:00,
2013-02-22 18:36:00,49.7,44.0,30.18,NW,314,4.0,9.0,80,0.00,,,0.00,0,weatherlink.com 1.10,2013-02-23 02:36:00,
2013-02-22 18:52:00,49.2,44.0,30.18,WNW,298,0.0,4.0,81,0.00,,,0.00,0,weatherlink.com 1.10,2013-02-23 02:52:00,
2013-02-22 19:06:00,48.9,43.0,30.19,WNW,296,1.0,3.0,81,0.00,,,0.00,0,weatherlink.com 1.10,2013-02-23 03:06:00,
2013-02-22 19:22:00,48.8,44.0,30.19,NW,319,2.0,3.0,82,0.00,,,0.00,0,weatherlink.com 1.10,2013-02-23 03:22:00,
2013-02-22 19:37:00,48.8,44.0,30.19,North,360,0.0,4.0,82,0.00,,,0.00,0,weatherlink.com 1.10,2013-02-23 03:37:00,
2013-02-22 19:52:00,48.4,44.0,30.18,NNW,346,2.0,2.0,83,0.00,,,0.00,0,weatherlink.com 1.10,2013-02-23 03:52:00,
2013-02-22 20:07:00,48.2,43.0,30.17,NW,319,0.0,1.0,83,0.00,,,0.00,0,weatherlink.com 1.10,2013-02-23 04:07:00,
2013-02-22 20:22:00,48.3,43.0,30.17,NNW,338,0.0,3.0,83,0.00,,,0.00,0,weatherlink.com 1.10,2013-02-23 04:22:00,
2013-02-22 20:37:00,48.1,44.0,30.19,NNE,23,0.0,3.0,84,0.00,,,0.00,0,weatherlink.com 1.10,2013-02-23 04:37:00,
2013-02-22 20:52:00,47.9,43.0,30.20,North,360,1.0,3.0,84,0.00,,,0.00,0,weatherlink.com 1.10,2013-02-23 04:52:00,
2013-02-22 21:07:00,47.6,43.0,30.20,WNW,302,2.0,4.0,85,0.00,,,0.00,0,weatherlink.com 1.10,2013-02-23 05:07:00,
2013-02-22 21:22:00,47.5,43.0,30.21,NW,313,0.0,3.0,85,0.00,,,0.00,0,weatherlink.com 1.10,2013-02-23 05:22:00,
2013-02-22 21:37:00,47.5,43.0,30.21,NNW,338,0.0,2.0,85,0.00,,,0.00,0,weatherlink.com 1.10,2013-02-23 05:37:00,
2013-02-22 21:52:00,47.7,43.0,30.21,NNE,22,4.0,8.0,85,0.00,,,0.00,0,weatherlink.com 1.10,2013-02-23 05:52:00,
2013-02-22 22:07:00,48.4,44.0,30.21,NNE,17,7.0,11.0,83,0.00,,,0.00,0,weatherlink.com 1.10,2013-02-23 06:07:00,
2013-02-22 22:22:00,48.6,44.0,30.22,North,11,5.0,12.0,83,0.00,,,0.00,0,weatherlink.com 1.10,2013-02-23 06:22:00,
2013-02-22 22:37:00,48.6,43.0,30.21,North,355,3.0,11.0,82,0.00,,,0.00,0,weatherlink.com 1.10,2013-02-23 06:37:00,
2013-02-22 22:52:00,48.6,43.0,30.22,North,10,4.0,12.0,81,0.00,,,0.00,0,weatherlink.com 1.10,2013-02-23 06:52:00,
2013-02-22 23:07:00,48.5,43.0,30.22,NW,325,6.0,10.0,81,0.00,,,0.00,0,weatherlink.com 1.10,2013-02-23 07:07:00,
2013-02-22 23:22:00,48.1,43.0,30.21,NNW,347,1.0,7.0,82,0.00,,,0.00,0,weatherlink.com 1.10,2013-02-23 07:22:00,
2013-02-22 23:37:00,47.6,43.0,30.21,NW,310,2.0,5.0,83,0.00,,,0.00,0,weatherlink.com 1.10,2013-02-23 07:37:00,
2013-02-22 23:52:00,47.1,43.0,30.21,NW,326,2.0,6.0,84,0.00,,,0.00,0,weatherlink.com 1.10,2013-02-23 07:52:00,